Time;durP1;ratioP1;P1;durP2;ratioP2;P2;SDS_P1;SDS_P2;PMS_P1;PMS_P2;Temp;Humidity;BMP_temperature;BMP_pressure;BME280_temperature;BME280_humidity;BME280_pressure;Samples;Min_cycle;Max_cycle;Signal;HPM_P1;HPM_P2
2021/01/12 00:02:12;;;;;;;17.37;10.75;;;;;;;-3.59;66.64;96380.23;1768211;80;21357;-79
2021/01/12 00:04:38;;;;;;;11.80;7.70;;;;;;;-3.43;66.68;96382.17;1816087;77;21095;-79
2021/01/12 00:07:04;;;;;;;84.90;44.60;;;;;;;-3.32;65.12;96383.59;1751267;80;21134;-79
2021/01/12 00:09:31;;;;;;;110.12;52.80;;;;;;;-3.41;66.51;96382.11;1805156;77;21315;-80
2021/01/12 00:11:57;;;;;;;127.75;60.78;;;;;;;-3.60;66.85;96385.41;1818902;78;21098;-80
2021/01/12 00:14:32;;;;;;;130.05;59.93;;;;;;;-3.79;67.21;96394.61;1826116;78;21133;-79
2021/01/12 00:17:03;;;;;;;102.42;50.08;;;;;;;-3.94;67.59;96401.44;1819597;77;21101;-79
2021/01/12 00:19:31;;;;;;;109.47;54.33;;;;;;;-4.20;67.15;96405.55;1814655;78;21442;-79
2021/01/12 00:21:57;;;;;;;96.12;50.50;;;;;;;-4.46;67.64;96396.92;1787289;77;21091;-79
2021/01/12 00:24:23;;;;;;;103.32;51.33;;;;;;;-4.47;68.54;96397.82;1816388;77;21107;-79
2021/01/12 00:26:49;;;;;;;106.87;53.45;;;;;;;-4.45;68.51;96401.53;1815765;78;21103;-79
2021/01/12 00:29:15;;;;;;;104.95;48.85;;;;;;;-4.42;68.94;96397.09;1810777;77;21097;-79
2021/01/12 00:31:42;;;;;;;104.95;49.10;;;;;;;-4.45;68.97;96388.40;1818849;78;21094;-79
2021/01/12 00:34:09;;;;;;;83.07;47.55;;;;;;;-4.44;69.29;96381.61;1813009;77;21086;-79
2021/01/12 00:36:46;;;;;;;94.67;45.95;;;;;;;-4.43;69.46;96390.39;1817898;77;21229;-79
2021/01/12 00:39:12;;;;;;;96.65;48.45;;;;;;;-4.37;69.62;96398.11;1819368;77;21103;-79
2021/01/12 00:41:38;;;;;;;96.53;47.40;;;;;;;-4.35;69.60;96401.38;1823544;77;21328;-79
2021/01/12 00:44:04;;;;;;;98.58;48.87;;;;;;;-4.36;69.55;96392.95;1822198;77;21091;-79
2021/01/12 00:46:33;;;;;;;90.75;47.60;;;;;;;-4.37;69.53;96394.31;1821399;77;21265;-79
2021/01/12 00:48:59;;;;;;;91.63;44.58;;;;;;;-4.37;69.72;96393.85;1833960;77;21094;-79
2021/01/12 00:51:35;;;;;;;77.05;40.05;;;;;;;-4.37;69.58;96388.78;1826857;77;21063;-79
2021/01/12 00:54:01;;;;;;;68.17;34.60;;;;;;;-4.43;69.57;96392.92;1793955;77;21157;-79
2021/01/12 00:56:27;;;;;;;44.20;23.35;;;;;;;-4.45;69.63;96383.33;1823069;77;21066;-79
2021/01/12 00:58:53;;;;;;;43.00;23.40;;;;;;;-4.49;69.63;96386.95;1822528;77;21308;-79
2021/01/12 01:01:19;;;;;;;47.48;25.05;;;;;;;-4.49;69.50;96374.27;1820899;77;21122;-79
2021/01/12 01:03:45;;;;;;;54.63;28.62;;;;;;;-4.58;69.38;96378.60;1745897;80;21128;-79
2021/01/12 01:06:12;;;;;;;59.88;31.70;;;;;;;-4.59;69.48;96381.59;1748496;80;21079;-79
2021/01/12 01:08:38;;;;;;;55.50;31.42;;;;;;;-4.57;69.42;96375.97;1759235;80;21291;-79
2021/01/12 01:11:04;;;;;;;53.48;28.73;;;;;;;-4.61;69.21;96372.45;1758846;80;21153;-79
2021/01/12 01:13:30;;;;;;;35.52;19.17;;;;;;;-4.61;69.25;96381.32;1767456;80;21984;-79
2021/01/12 01:15:57;;;;;;;23.45;15.30;;;;;;;-4.68;69.19;96372.45;1763800;80;21114;-80
2021/01/12 01:18:23;;;;;;;22.30;13.68;;;;;;;-4.72;69.15;96376.05;1766761;80;21174;-79
2021/01/12 01:20:50;;;;;;;23.47;12.50;;;;;;;-4.70;69.42;96367.47;1753998;80;21666;-79
2021/01/12 01:23:16;;;;;;;19.95;11.60;;;;;;;-4.60;69.19;96366.47;1725790;80;21126;-79
2021/01/12 01:25:43;;;;;;;19.50;10.82;;;;;;;-4.62;68.79;96356.42;1757743;80;21122;-79
2021/01/12 01:28:09;;;;;;;12.35;8.88;;;;;;;-4.67;68.49;96352.53;1761554;80;21108;-77
2021/01/12 01:30:35;;;;;;;11.78;7.90;;;;;;;-4.71;68.13;96342.22;1754299;80;21130;-78
2021/01/12 01:33:02;;;;;;;10.28;7.72;;;;;;;-4.66;67.73;96344.02;1765865;80;21142;-78
2021/01/12 01:35:28;;;;;;;11.15;8.03;;;;;;;-4.58;68.57;96341.84;1759340;80;21373;-77
2021/01/12 01:37:54;;;;;;;9.53;7.10;;;;;;;-4.52;68.53;96334.34;1751596;80;21086;-77
2021/01/12 01:40:21;;;;;;;12.70;7.55;;;;;;;-4.47;68.31;96336.14;1752441;80;21321;-77
2021/01/12 01:42:49;;;;;;;10.10;6.72;;;;;;;-4.42;67.97;96336.22;1752940;80;21177;-77
2021/01/12 01:45:15;;;;;;;12.05;7.10;;;;;;;-4.32;67.01;96332.69;1753411;81;21217;-77
2021/01/12 01:47:45;;;;;;;9.68;7.12;;;;;;;-4.19;67.06;96330.24;1757272;80;21091;-78
2021/01/12 01:50:14;;;;;;;8.08;7.00;;;;;;;-4.09;67.30;96327.48;1751707;81;21138;-77
2021/01/12 01:52:40;;;;;;;11.90;7.50;;;;;;;-4.03;66.95;96323.33;1758055;81;21110;-77
2021/01/12 01:55:07;;;;;;;8.80;6.33;;;;;;;-3.99;66.74;96314.16;1749714;81;21114;-78
2021/01/12 01:57:34;;;;;;;6.85;5.97;;;;;;;-3.91;66.79;96313.66;1759818;81;21127;-77
2021/01/12 02:00:00;;;;;;;11.55;8.35;;;;;;;-3.85;66.51;96306.14;1759030;81;21131;-77
2021/01/12 02:02:26;;;;;;;8.25;6.45;;;;;;;-3.85;66.30;96301.88;1746300;81;21134;-77
2021/01/12 02:04:52;;;;;;;7.12;5.70;;;;;;;-3.83;66.55;96289.91;1751037;80;21257;-77
2021/01/12 02:07:18;;;;;;;7.62;5.42;;;;;;;-3.82;65.62;96288.98;1752098;81;21108;-77
2021/01/12 02:09:49;;;;;;;5.45;4.95;;;;;;;-3.68;65.04;96282.59;1753657;81;21144;-77
2021/01/12 02:12:38;;;;;;;6.40;4.80;;;;;;;-3.56;65.18;96272.13;1808848;78;21336;-77
2021/01/12 02:15:07;;;;;;;4.80;4.33;;;;;;;-3.44;65.24;96253.98;1672220;83;21171;-77
2021/01/12 02:17:33;;;;;;;6.65;5.03;;;;;;;-3.32;62.98;96264.63;1692619;83;21142;-77
2021/01/12 02:19:59;;;;;;;6.83;5.25;;;;;;;-3.18;63.74;96254.39;1693940;83;21182;-80
2021/01/12 02:22:26;;;;;;;5.90;4.45;;;;;;;-3.08;63.42;96243.98;1681528;83;21478;-80
2021/01/12 02:24:52;;;;;;;6.03;4.70;;;;;;;-2.93;62.25;96252.75;1670659;83;21168;-80
2021/01/12 02:27:22;;;;;;;5.55;4.67;;;;;;;-2.84;62.24;96238.98;1675318;83;21379;-80
2021/01/12 02:29:49;;;;;;;4.67;3.87;;;;;;;-2.77;60.44;96233.85;1683684;83;21525;-80
2021/01/12 02:32:19;;;;;;;4.87;4.37;;;;;;;-2.67;61.53;96230.20;1679401;83;21144;-79
2021/01/12 02:34:47;;;;;;;5.05;3.92;;;;;;;-2.62;61.47;96227.34;1686222;83;21124;-79
2021/01/12 02:37:17;;;;;;;5.12;4.60;;;;;;;-2.58;61.30;96228.78;1689956;83;21401;-80
2021/01/12 02:39:43;;;;;;;4.50;3.85;;;;;;;-2.54;61.57;96231.00;1675841;83;21209;-79
2021/01/12 02:42:15;;;;;;;6.05;4.45;;;;;;;-2.51;60.83;96228.70;1672903;83;21188;-80
2021/01/12 02:44:41;;;;;;;4.60;4.20;;;;;;;-2.51;60.77;96218.06;1684935;83;21108;-80
2021/01/12 02:47:07;;;;;;;6.30;5.12;;;;;;;-2.49;60.57;96216.69;1687699;83;21379;-80
2021/01/12 02:49:33;;;;;;;6.00;4.33;;;;;;;-2.51;61.34;96209.62;1679185;83;22236;-77
2021/01/12 02:51:59;;;;;;;5.67;4.20;;;;;;;-2.49;60.77;96207.78;1684598;83;21106;-77
2021/01/12 02:54:27;;;;;;;6.47;5.03;;;;;;;-2.48;61.20;96202.59;1684745;83;21425;-77
2021/01/12 02:56:54;;;;;;;5.67;4.42;;;;;;;-2.46;60.85;96209.65;1682300;83;21136;-77
2021/01/12 02:59:21;;;;;;;6.62;5.33;;;;;;;-2.42;60.29;96203.45;1676622;83;21144;-77
2021/01/12 03:01:47;;;;;;;5.10;4.28;;;;;;;-2.40;60.50;96191.89;1671438;83;21203;-77
2021/01/12 03:04:13;;;;;;;5.47;4.60;;;;;;;-2.37;59.48;96195.95;1675073;83;21160;-77
2021/01/12 03:06:39;;;;;;;4.62;4.05;;;;;;;-2.33;59.59;96191.80;1676684;83;21155;-77
2021/01/12 03:09:05;;;;;;;4.97;4.28;;;;;;;-2.28;58.92;96185.95;1679706;83;21247;-77
2021/01/12 03:11:32;;;;;;;7.30;5.03;;;;;;;-2.26;59.39;96183.30;1676809;83;21147;-77
2021/01/12 03:13:58;;;;;;;7.62;5.05;;;;;;;-2.23;59.27;96167.80;1688249;83;21151;-76
2021/01/12 03:16:27;;;;;;;7.50;5.55;;;;;;;-2.20;59.55;96169.67;1693656;84;21111;-77
2021/01/12 03:18:53;;;;;;;5.87;5.10;;;;;;;-2.21;58.86;96166.77;1693934;84;21137;-77
2021/01/12 03:21:19;;;;;;;5.05;4.40;;;;;;;-2.19;58.82;96162.38;1693592;84;21155;-77
2021/01/12 03:23:46;;;;;;;4.85;4.00;;;;;;;-2.20;59.43;96162.49;1691163;84;21148;-78
2021/01/12 03:26:12;;;;;;;5.58;4.17;;;;;;;-2.21;58.13;96159.14;1687689;84;21134;-77
2021/01/12 03:28:38;;;;;;;5.58;4.15;;;;;;;-2.16;58.45;96157.06;1693177;84;21258;-77
2021/01/12 03:31:04;;;;;;;7.28;4.40;;;;;;;-2.14;58.14;96154.41;1666216;84;21362;-77
2021/01/12 03:33:30;;;;;;;5.65;4.92;;;;;;;-2.21;58.05;96140.51;1694836;84;21261;-77
2021/01/12 03:35:56;;;;;;;3.35;3.05;;;;;;;-2.13;58.42;96156.03;1689603;84;21147;-77
2021/01/12 03:38:22;;;;;;;4.65;3.33;;;;;;;-2.15;57.39;96156.61;1696158;84;21103;-77
2021/01/12 03:40:48;;;;;;;5.30;4.05;;;;;;;-2.15;58.20;96154.88;1686682;84;21390;-77
2021/01/12 03:43:15;;;;;;;4.95;4.42;;;;;;;-2.14;57.92;96151.86;1693444;84;21433;-77
2021/01/12 03:45:41;;;;;;;4.60;4.08;;;;;;;-2.11;58.15;96146.58;1693058;84;21300;-77
2021/01/12 03:48:07;;;;;;;4.53;3.42;;;;;;;-2.07;57.64;96137.80;1692620;84;21143;-77
2021/01/12 03:50:33;;;;;;;5.45;4.05;;;;;;;-2.02;56.80;96142.55;1696831;84;21134;-77
2021/01/12 03:52:59;;;;;;;4.05;3.62;;;;;;;-2.01;57.66;96136.53;1694324;84;21301;-77
2021/01/12 03:55:25;;;;;;;4.42;3.98;;;;;;;-2.03;57.06;96123.91;1692374;84;21173;-77
2021/01/12 03:57:51;;;;;;;4.22;3.42;;;;;;;-2.01;57.50;96120.79;1685143;84;21472;-77
2021/01/12 04:00:18;;;;;;;4.35;3.70;;;;;;;-2.00;57.36;96116.51;1692539;84;21211;-77
2021/01/12 04:02:44;;;;;;;4.00;3.60;;;;;;;-1.99;57.52;96107.48;1694428;84;21460;-78
2021/01/12 04:05:11;;;;;;;4.90;4.15;;;;;;;-1.99;56.98;96105.40;1691785;84;21127;-77
2021/01/12 04:07:37;;;;;;;5.25;4.65;;;;;;;-1.97;57.40;96103.09;1686947;84;21162;-77
2021/01/12 04:10:08;;;;;;;4.85;4.10;;;;;;;-1.94;57.32;96100.80;1692899;84;21166;-77
2021/01/12 04:12:34;;;;;;;3.77;3.17;;;;;;;-1.92;56.69;96097.69;1691549;84;21196;-77
2021/01/12 04:15:00;;;;;;;4.47;4.08;;;;;;;-1.92;56.50;96101.04;1698497;83;21135;-77
2021/01/12 04:17:27;;;;;;;4.58;4.17;;;;;;;-1.91;56.72;96095.02;1698013;83;21144;-77
2021/01/12 04:19:53;;;;;;;3.37;3.08;;;;;;;-1.89;56.73;96084.72;1707691;83;21154;-77
2021/01/12 04:22:19;;;;;;;5.15;3.70;;;;;;;-1.91;55.44;96090.39;1706147;83;21125;-77
2021/01/12 04:24:45;;;;;;;3.92;3.62;;;;;;;-1.88;56.62;96086.34;1702608;83;21085;-77
2021/01/12 04:27:11;;;;;;;4.97;4.37;;;;;;;-1.88;56.40;96074.88;1694531;83;21260;-77
2021/01/12 04:29:37;;;;;;;5.28;3.92;;;;;;;-1.85;56.59;96077.20;1707000;83;21105;-77
2021/01/12 04:32:03;;;;;;;4.37;3.98;;;;;;;-1.84;56.82;96066.89;1699198;83;21142;-77
2021/01/12 04:34:29;;;;;;;4.33;3.75;;;;;;;-1.81;56.16;96054.39;1705655;83;21398;-77
2021/01/12 04:36:55;;;;;;;3.77;3.20;;;;;;;-1.78;56.61;96058.47;1705128;83;21276;-77
2021/01/12 04:39:21;;;;;;;3.42;2.87;;;;;;;-1.75;56.37;96053.95;1706390;83;21824;-77
2021/01/12 04:41:47;;;;;;;4.67;3.90;;;;;;;-1.73;55.57;96048.74;1695240;83;21195;-77
2021/01/12 04:44:13;;;;;;;4.00;3.60;;;;;;;-1.70;56.15;96050.59;1697983;83;21105;-77
2021/01/12 04:46:39;;;;;;;3.70;3.37;;;;;;;-1.66;55.42;96050.70;1702043;83;21128;-77
2021/01/12 04:49:05;;;;;;;4.55;3.60;;;;;;;-1.62;55.21;96052.12;1697382;83;21406;-77
2021/01/12 04:51:32;;;;;;;5.22;3.60;;;;;;;-1.56;54.95;96050.84;1702763;83;21124;-77
2021/01/12 04:53:58;;;;;;;4.00;3.60;;;;;;;-1.55;55.34;96055.81;1707204;83;21286;-78
2021/01/12 04:56:24;;;;;;;6.75;4.20;;;;;;;-1.55;54.84;96063.45;1711873;83;21410;-77
2021/01/12 04:58:52;;;;;;;4.10;3.47;;;;;;;-1.50;54.64;96066.92;1705026;83;21122;-77
2021/01/12 05:01:21;;;;;;;15.72;9.25;;;;;;;-1.48;54.81;96062.52;1702633;83;21254;-77
2021/01/12 05:03:49;;;;;;;49.65;25.97;;;;;;;-1.46;55.67;96059.42;1709296;83;21153;-78
2021/01/12 05:06:20;;;;;;;44.13;24.07;;;;;;;-1.61;56.41;96055.47;1701344;83;21130;-78
2021/01/12 05:08:55;;;;;;;30.57;16.25;;;;;;;-1.80;57.28;96056.02;1698405;83;21494;-77
2021/01/12 05:11:31;;;;;;;43.40;22.25;;;;;;;-1.95;57.93;96050.80;1717214;83;21101;-77
2021/01/12 05:14:04;;;;;;;25.12;16.80;;;;;;;-2.04;58.64;96048.45;1701535;83;21400;-77
2021/01/12 05:16:31;;;;;;;39.67;21.75;;;;;;;-2.11;58.46;96048.57;1700780;83;21128;-77
2021/01/12 05:18:58;;;;;;;23.92;15.40;;;;;;;-2.18;59.42;96040.55;1715040;83;21103;-77
2021/01/12 05:21:26;;;;;;;15.23;10.80;;;;;;;-2.28;58.74;96037.50;1704142;83;21132;-77
2021/01/12 05:24:05;;;;;;;5.42;4.65;;;;;;;-2.30;57.80;96031.25;1700289;83;21165;-77
2021/01/12 05:26:34;;;;;;;14.05;12.58;;;;;;;-2.24;56.40;96021.11;1708587;83;21300;-77
2021/01/12 05:29:02;;;;;;;10.68;8.78;;;;;;;-2.14;57.59;96017.77;1702097;83;21292;-77
2021/01/12 05:31:28;;;;;;;10.15;8.30;;;;;;;-2.09;56.92;96000.90;1708255;83;21243;-78
2021/01/12 05:33:54;;;;;;;7.67;6.72;;;;;;;-2.01;56.35;95998.58;1703557;83;21176;-77
2021/01/12 05:36:20;;;;;;;8.58;6.30;;;;;;;-1.93;56.07;96003.12;1707544;83;21370;-77
2021/01/12 05:38:47;;;;;;;5.95;4.83;;;;;;;-1.87;55.41;95997.09;1702140;83;21124;-77
2021/01/12 05:41:14;;;;;;;10.60;9.25;;;;;;;-1.78;55.08;95987.16;1705042;83;21163;-77
2021/01/12 05:43:45;;;;;;;5.92;4.78;;;;;;;-1.74;56.00;95983.45;1695423;83;21137;-77
2021/01/12 05:46:14;;;;;;;4.78;3.90;;;;;;;-1.73;55.63;95974.88;1701086;83;21098;-77
2021/01/12 05:48:44;;;;;;;4.92;4.17;;;;;;;-1.71;55.79;95961.55;1707077;83;21118;-78
2021/01/12 05:51:13;;;;;;;3.92;3.45;;;;;;;-1.70;54.60;95949.16;1699354;83;21404;-77
2021/01/12 05:53:51;;;;;;;4.60;4.20;;;;;;;-1.65;54.53;95949.15;1701717;83;21157;-77
2021/01/12 05:56:22;;;;;;;3.83;3.42;;;;;;;-1.64;55.52;95938.50;1707197;83;21165;-77
2021/01/12 05:58:52;;;;;;;5.42;4.55;;;;;;;-1.60;53.87;95934.34;1701753;83;21130;-77
2021/01/12 06:01:45;;;;;;;4.42;3.92;;;;;;;-1.57;53.37;95934.10;1697975;83;21482;-77
2021/01/12 06:04:13;;;;;;;4.03;3.65;;;;;;;-1.55;55.50;95928.88;1696247;83;21175;-77
2021/01/12 06:06:41;;;;;;;5.83;4.08;;;;;;;-1.48;53.28;95931.75;1703878;83;21126;-77
2021/01/12 06:09:08;;;;;;;4.25;3.85;;;;;;;-1.45;54.23;95931.08;1697728;83;21280;-77
2021/01/12 06:11:36;;;;;;;3.58;2.90;;;;;;;-1.39;54.65;95939.52;1700596;83;21110;-77
2021/01/12 06:14:13;;;;;;;3.77;3.47;;;;;;;-1.35;52.96;95944.70;1703636;83;21361;-77
2021/01/12 06:16:42;;;;;;;4.20;3.55;;;;;;;-1.27;53.72;95944.94;1709327;83;21146;-77
2021/01/12 06:19:13;;;;;;;4.90;3.72;;;;;;;-1.21;54.43;95943.64;1704724;83;21338;-77
2021/01/12 06:22:00;;;;;;;3.63;3.30;;;;;;;-1.17;53.44;95946.75;1703439;83;21244;-76
2021/01/12 06:24:32;;;;;;;4.20;3.80;;;;;;;-1.15;54.30;95957.16;1698629;83;21133;-77
2021/01/12 06:26:58;;;;;;;3.87;3.27;;;;;;;-1.18;53.80;95948.48;1701893;83;21120;-77
2021/01/12 06:29:24;;;;;;;4.22;3.55;;;;;;;-1.12;53.47;95953.59;1695100;83;21813;-77
2021/01/12 06:31:50;;;;;;;4.15;3.47;;;;;;;-1.11;53.99;95952.66;1706527;82;21258;-77
2021/01/12 06:34:18;;;;;;;4.55;3.90;;;;;;;-1.11;54.53;95953.94;1706446;83;21112;-77
2021/01/12 06:36:56;;;;;;;3.15;2.95;;;;;;;-1.12;53.91;95948.49;1690570;83;21363;-77
2021/01/12 06:39:42;;;;;;;3.90;3.40;;;;;;;-1.11;54.24;95936.90;1695258;83;21126;-77
2021/01/12 06:42:09;;;;;;;4.75;3.65;;;;;;;-1.12;52.66;95931.45;1681337;84;21139;-78
2021/01/12 06:44:37;;;;;;;3.83;3.30;;;;;;;-1.05;53.68;95926.67;1693854;83;21327;-77
2021/01/12 06:47:10;;;;;;;3.37;2.67;;;;;;;-1.02;53.52;95924.68;1700196;83;21095;-77
2021/01/12 06:49:36;;;;;;;3.40;3.10;;;;;;;-1.00;53.66;95918.98;1699977;83;21151;-77
2021/01/12 06:52:09;;;;;;;3.75;3.45;;;;;;;-0.99;53.70;95909.59;1703161;83;21129;-77
2021/01/12 06:54:40;;;;;;;;;;;;;;;-0.98;54.05;95901.02;1701075;83;21288;-77
2021/01/12 06:57:14;;;;;;;2.92;2.58;;;;;;;-0.97;54.33;95901.38;1695522;83;20408;-77
2021/01/12 06:59:52;;;;;;;4.12;3.72;;;;;;;-0.95;52.63;95900.79;1709002;83;21452;-77
2021/01/12 07:02:30;;;;;;;6.95;3.85;;;;;;;-0.91;53.25;95890.21;1702207;83;21083;-77
2021/01/12 07:05:15;;;;;;;5.10;3.65;;;;;;;-0.92;53.85;95896.72;1704545;83;21161;-77
2021/01/12 07:07:53;;;;;;;3.87;3.47;;;;;;;-0.88;54.28;95894.25;1647671;85;21289;-77
2021/01/12 07:10:21;;;;;;;4.33;3.72;;;;;;;-0.81;54.50;95885.66;1701306;83;21233;-77
2021/01/12 07:12:49;;;;;;;4.05;3.65;;;;;;;-0.73;55.09;95885.37;1680383;83;21236;-77
2021/01/12 07:15:20;;;;;;;7.45;4.37;;;;;;;-0.72;53.96;95895.91;1700114;83;21160;-76
2021/01/12 07:17:49;;;;;;;6.08;4.78;;;;;;;-0.68;54.29;95893.45;1698652;83;21118;-76
2021/01/12 07:20:20;;;;;;;4.80;3.45;;;;;;;-0.66;55.46;95889.48;1704221;83;21124;-77
2021/01/12 07:23:06;;;;;;;6.40;4.40;;;;;;;-0.67;54.83;95891.23;1704184;83;21127;-76
2021/01/12 07:25:39;;;;;;;3.50;3.20;;;;;;;-0.66;56.18;95887.75;1699882;83;21099;-76
2021/01/12 07:28:18;;;;;;;6.15;3.85;;;;;;;-0.65;55.92;95891.95;1688019;83;21134;-76
2021/01/12 07:30:49;;;;;;;3.30;2.75;;;;;;;-0.64;55.90;95885.09;1698147;83;21967;-76
2021/01/12 07:33:26;;;;;;;5.17;4.17;;;;;;;-0.62;55.70;95890.88;1696072;83;21388;-77
2021/01/12 07:35:54;;;;;;;4.47;3.52;;;;;;;-0.58;55.59;95887.61;1699467;83;21107;-76
2021/01/12 07:38:26;;;;;;;4.42;3.55;;;;;;;-0.56;55.49;95881.44;1689254;83;21095;-76
2021/01/12 07:40:55;;;;;;;4.25;3.40;;;;;;;-0.52;54.72;95878.97;1696513;84;21139;-76
2021/01/12 07:43:22;;;;;;;6.75;4.50;;;;;;;-0.51;55.17;95865.27;1695716;83;21146;-76
2021/01/12 07:45:50;;;;;;;5.92;4.22;;;;;;;-0.47;55.74;95855.64;1696098;83;21111;-76
2021/01/12 07:48:17;;;;;;;4.67;3.55;;;;;;;-0.40;55.68;95856.74;1694460;83;21288;-77
2021/01/12 07:50:44;;;;;;;5.42;4.03;;;;;;;-0.33;55.97;95845.08;1699466;83;21106;-77
2021/01/12 07:53:10;;;;;;;5.58;4.20;;;;;;;-0.31;56.35;95840.20;1702960;83;21144;-76
2021/01/12 07:55:41;;;;;;;4.80;3.30;;;;;;;-0.26;56.03;95833.91;1693330;83;21270;-76
2021/01/12 07:58:09;;;;;;;5.90;4.17;;;;;;;-0.22;56.41;95831.42;1689385;83;21139;-80
2021/01/12 08:00:36;;;;;;;4.12;3.58;;;;;;;-0.21;55.83;95829.20;1699981;83;21111;-78
2021/01/12 08:03:03;;;;;;;5.08;3.55;;;;;;;-0.22;56.34;95825.04;1699139;83;21566;-77
2021/01/12 08:05:29;;;;;;;3.30;3.02;;;;;;;-0.19;56.42;95822.22;1646163;85;21325;-77
2021/01/12 08:08:06;;;;;;;5.12;3.27;;;;;;;-0.14;57.05;95813.73;1699522;83;21127;-77
2021/01/12 08:10:35;;;;;;;5.22;3.72;;;;;;;-0.10;56.88;95813.33;1700955;83;21118;-77
2021/01/12 08:13:08;;;;;;;5.20;3.70;;;;;;;-0.07;57.30;95818.64;1673026;83;21102;-77
2021/01/12 08:15:36;;;;;;;4.47;3.52;;;;;;;-0.01;56.80;95821.47;1698794;82;21146;-77
2021/01/12 08:18:18;;;;;;;3.87;3.20;;;;;;;0.02;56.95;95812.77;1700399;83;21155;-77
2021/01/12 08:20:45;;;;;;;5.15;2.85;;;;;;;0.08;57.80;95826.75;1694433;83;22189;-77
2021/01/12 08:23:18;;;;;;;4.95;3.65;;;;;;;0.17;57.41;95814.02;1693905;83;21546;-77
2021/01/12 08:25:45;;;;;;;4.58;3.83;;;;;;;0.30;57.75;95819.66;1699436;83;21122;-78
2021/01/12 08:28:11;;;;;;;4.60;3.10;;;;;;;0.41;57.39;95812.35;1692628;83;21119;-78
2021/01/12 08:30:39;;;;;;;4.15;3.22;;;;;;;0.54;57.58;95823.61;1700995;83;21132;-76
2021/01/12 08:33:38;;;;;;;4.78;3.65;;;;;;;0.66;57.02;95820.45;1694842;83;21174;-77
2021/01/12 08:36:15;;;;;;;5.37;4.10;;;;;;;0.76;57.66;95816.94;1694073;83;21130;-78
2021/01/12 08:38:55;;;;;;;;;;;;;;;;;;;;;
2021/01/12 08:41:32;;;;;;;4.70;3.85;;;;;;;0.95;57.23;95815.31;1802871;79;23734;-79
2021/01/12 08:43:59;;;;;;;6.33;4.10;;;;;;;0.95;57.48;95821.70;1777580;78;21340;-79
2021/01/12 08:46:29;;;;;;;5.17;3.65;;;;;;;1.01;57.46;95823.73;1779812;79;21129;-79
2021/01/12 08:48:55;;;;;;;6.25;4.15;;;;;;;1.05;56.84;95828.44;1771015;78;21451;-79
2021/01/12 08:51:21;;;;;;;4.75;3.80;;;;;;;1.11;57.29;95824.04;1771513;78;21319;-81
2021/01/12 08:53:49;;;;;;;5.15;3.60;;;;;;;1.09;57.35;95824.66;1766771;79;21082;-81
2021/01/12 08:56:16;;;;;;;3.98;3.30;;;;;;;1.10;57.57;95835.22;1739292;80;21102;-81
2021/01/12 08:58:43;;;;;;;4.03;3.27;;;;;;;1.16;57.29;95837.72;1777061;80;21105;-80
2021/01/12 09:01:14;;;;;;;6.78;4.62;;;;;;;1.24;56.47;95830.63;1721280;82;21139;-81
2021/01/12 09:03:42;;;;;;;4.30;3.10;;;;;;;1.34;56.91;95826.30;1759110;80;21337;-80
2021/01/12 09:06:22;;;;;;;6.00;4.62;;;;;;;1.42;56.77;95816.97;1760660;79;21090;-80
2021/01/12 09:08:48;;;;;;;5.22;3.70;;;;;;;1.49;57.63;95824.45;1769982;79;21349;-80
2021/01/12 09:11:15;;;;;;;4.22;3.02;;;;;;;1.57;57.25;95827.58;1730073;81;21478;-80
2021/01/12 09:13:41;;;;;;;8.00;4.72;;;;;;;1.64;56.80;95835.05;1777474;79;21240;-79
2021/01/12 09:16:07;;;;;;;4.72;3.58;;;;;;;1.68;56.78;95833.02;1780303;79;21082;-79
2021/01/12 09:18:35;;;;;;;4.67;3.70;;;;;;;1.72;56.58;95822.34;1765780;79;21396;-80
2021/01/12 09:21:06;;;;;;;6.00;4.40;;;;;;;1.78;56.93;95828.64;1759178;79;21111;-79
2021/01/12 09:23:32;;;;;;;6.42;4.00;;;;;;;1.82;58.01;95828.72;1738096;79;21093;-79
2021/01/12 09:26:01;;;;;;;7.47;4.35;;;;;;;1.82;56.48;95818.47;1765516;79;21161;-84
2021/01/12 09:28:31;;;;;;;7.50;5.05;;;;;;;1.80;57.40;95814.77;1767007;79;21251;-81
2021/01/12 09:31:11;;;;;;;6.58;4.17;;;;;;;1.74;57.23;95809.39;1769230;79;21142;-80
2021/01/12 09:33:40;;;;;;;9.53;6.47;;;;;;;1.74;57.78;95806.35;1761636;78;21244;-80
2021/01/12 09:36:11;;;;;;;10.78;9.25;;;;;;;1.74;57.65;95805.07;1761649;79;21114;-80
2021/01/12 09:38:40;;;;;;;50.52;21.25;;;;;;;1.74;58.21;95804.27;1761872;78;21355;-81
2021/01/12 09:41:07;;;;;;;11.53;5.67;;;;;;;1.81;58.63;95792.52;1766550;79;21260;-80
2021/01/12 09:43:33;;;;;;;25.40;10.98;;;;;;;1.87;58.92;95807.79;1758055;79;21236;-80
2021/01/12 09:45:59;;;;;;;7.33;4.85;;;;;;;1.91;58.44;95790.70;1765193;79;21141;-80
2021/01/12 09:48:26;;;;;;;5.92;3.80;;;;;;;1.94;57.85;95781.92;1760214;79;21463;-79
2021/01/12 09:50:52;;;;;;;8.95;5.35;;;;;;;1.90;57.35;95780.59;1767601;79;21107;-79
2021/01/12 09:53:18;;;;;;;13.88;7.85;;;;;;;1.83;58.26;95777.81;1763806;79;21244;-79
2021/01/12 09:55:44;;;;;;;6.65;4.40;;;;;;;1.83;57.82;95773.97;1765993;78;21339;-79
2021/01/12 09:58:10;;;;;;;7.20;4.22;;;;;;;1.80;58.00;95778.91;1762207;79;21138;-79
2021/01/12 10:00:36;;;;;;;4.08;3.08;;;;;;;1.73;57.73;95756.08;1762003;79;21247;-79
2021/01/12 10:03:08;;;;;;;3.35;2.60;;;;;;;1.73;57.97;95766.32;1762473;79;21494;-79
2021/01/12 10:05:38;;;;;;;3.87;3.47;;;;;;;1.82;58.85;95763.87;1769285;79;21098;-79
2021/01/12 10:08:05;;;;;;;7.17;4.37;;;;;;;1.94;58.45;95762.70;1763148;79;22050;-79
2021/01/12 10:10:32;;;;;;;12.30;6.90;;;;;;;1.98;57.90;95739.23;1767853;79;21240;-78
2021/01/12 10:12:58;;;;;;;9.53;6.10;;;;;;;2.00;58.42;95749.34;1761128;78;21141;-79
2021/01/12 10:15:24;;;;;;;4.83;4.00;;;;;;;2.00;58.18;95740.37;1758693;79;21138;-79
2021/01/12 10:17:50;;;;;;;5.45;3.52;;;;;;;1.99;58.18;95733.63;1760231;79;21137;-79
2021/01/12 10:20:17;;;;;;;5.53;4.12;;;;;;;1.99;59.42;95745.16;1764395;78;21126;-79
2021/01/12 10:22:43;;;;;;;6.50;4.53;;;;;;;1.99;58.61;95706.25;1760880;79;21113;-79
2021/01/12 10:25:10;;;;;;;5.87;3.65;;;;;;;1.99;59.24;95713.14;1736160;80;21133;-79
2021/01/12 10:27:38;;;;;;;6.45;4.40;;;;;;;2.04;58.70;95737.37;1763886;79;21360;-79
2021/01/12 10:30:06;;;;;;;7.33;4.47;;;;;;;1.99;58.15;95712.66;1766034;78;21117;-80
2021/01/12 10:32:32;;;;;;;5.65;3.80;;;;;;;1.98;58.70;95727.70;1760448;79;21248;-81
2021/01/12 10:34:59;;;;;;;6.87;4.90;;;;;;;1.98;58.97;95711.53;1771784;78;21625;-80
2021/01/12 10:37:27;;;;;;;4.72;3.08;;;;;;;1.99;58.26;95704.17;1765754;78;21130;-80
2021/01/12 10:39:54;;;;;;;4.70;3.40;;;;;;;1.93;58.74;95695.28;1734047;80;21609;-80
2021/01/12 10:42:21;;;;;;;6.70;3.90;;;;;;;1.93;59.29;95681.19;1778157;78;21303;-80
2021/01/12 10:44:47;;;;;;;6.67;4.22;;;;;;;1.95;59.07;95679.31;1778212;78;21353;-80
2021/01/12 10:47:14;;;;;;;5.35;3.27;;;;;;;1.96;59.29;95675.00;1770575;78;21129;-80
2021/01/12 10:49:40;;;;;;;22.00;10.72;;;;;;;1.96;59.30;95679.65;1776487;79;21605;-79
2021/01/12 10:52:09;;;;;;;4.87;4.00;;;;;;;1.98;59.28;95665.41;1779965;78;21435;-80
2021/01/12 10:54:35;;;;;;;14.98;7.22;;;;;;;1.99;59.87;95660.13;1722107;81;21108;-80
2021/01/12 10:57:02;;;;;;;18.07;9.23;;;;;;;2.04;59.33;95654.08;1777625;79;21247;-80
2021/01/12 10:59:29;;;;;;;6.25;4.50;;;;;;;2.10;59.29;95651.40;1776410;79;21141;-80
2021/01/12 11:02:01;;;;;;;18.05;8.58;;;;;;;2.07;59.68;95647.38;1774133;78;21221;-80
2021/01/12 11:04:27;;;;;;;8.18;4.70;;;;;;;2.14;60.21;95649.37;1726848;81;21095;-79
2021/01/12 11:06:55;;;;;;;18.62;9.75;;;;;;;2.20;59.99;95637.23;1787588;78;21093;-79
2021/01/12 11:09:28;;;;;;;22.58;11.68;;;;;;;2.25;60.34;95621.73;1782836;78;21126;-80
2021/01/12 11:12:02;;;;;;;5.70;3.77;;;;;;;2.34;60.75;95622.13;1779295;78;21137;-78
2021/01/12 11:14:29;;;;;;;8.18;6.03;;;;;;;2.46;60.03;95621.90;1745112;80;21192;-79
2021/01/12 11:16:55;;;;;;;7.80;4.60;;;;;;;2.54;60.48;95619.37;1760056;78;21414;-79
2021/01/12 11:19:22;;;;;;;23.35;12.47;;;;;;;2.61;59.91;95612.70;1776215;78;21097;-80
2021/01/12 11:21:50;;;;;;;10.53;6.65;;;;;;;2.68;60.42;95627.32;1772918;78;21268;-79
2021/01/12 11:24:23;;;;;;;10.05;5.72;;;;;;;2.73;59.77;95610.66;1775406;78;21346;-79
2021/01/12 11:26:50;;;;;;;7.45;4.47;;;;;;;2.69;59.46;95617.39;1781203;78;22023;-79
2021/01/12 11:29:17;;;;;;;7.67;5.08;;;;;;;2.60;57.39;95602.92;1771927;80;21274;-80
2021/01/12 11:31:44;;;;;;;6.95;5.53;;;;;;;2.45;58.78;95591.61;1764347;80;21086;-79
2021/01/12 11:34:13;;;;;;;7.80;5.15;;;;;;;2.40;58.54;95600.20;1753419;80;21256;-80
2021/01/12 11:36:45;;;;;;;7.47;5.00;;;;;;;2.31;58.63;95593.43;1790157;79;21126;-79
2021/01/12 11:39:15;;;;;;;16.95;10.00;;;;;;;2.29;59.12;95579.48;1786852;80;21095;-79
2021/01/12 11:41:55;;;;;;;8.38;5.50;;;;;;;2.31;59.69;95574.20;1785798;80;21148;-79